Cumberland Island, Georgia
Current Conditions -  °F | °C
As of 1:15 PM on Thursday 27 Nov 2014 (Local Time) from KFHB Reporting Station
Clear Clear  
Wind Chill: 64°   Ceiling: Unl
Heat Index: 64°   Visibility: 10mi
Dew Point: 32°   Wind: 17mph
Humidity: 30%   Direction: 300°WNW
Pressure: 30.18"   Gusts: NA
Location:  30.83°N, 81.45°W
Report Text: KFHB 271815Z AUTO 30015KT 10SM CLR 18/00 A3018 RMK AO1
Loading
Personal Weather Stations






























Interactive Weather Map New forecast layout! Learn more

10-Day Weather Forecast

Advertisements
Track Severe Weather on mobile